Time;durP1;ratioP1;P1;durP2;ratioP2;P2;SDS_P1;SDS_P2;PMS_P1;PMS_P2;Temp;Humidity;BMP_temperature;BMP_pressure;BME280_temperature;BME280_humidity;BME280_pressure;Samples;Min_cycle;Max_cycle;Signal;HPM_P1;HPM_P2
2022/03/13 00:00:36;;;;;;;11.73;6.13;;;;;;;-2.58;65.99;95580.09;4981412;28;20703;-66
2022/03/13 00:03:09;;;;;;;13.00;6.77;;;;;;;-2.58;65.96;95587.56;4997093;28;20210;-65
2022/03/13 00:05:39;;;;;;;10.80;6.20;;;;;;;-2.47;65.79;95603.09;5015190;28;20207;-62
2022/03/13 00:08:18;;;;;;;13.47;6.27;;;;;;;-2.35;65.45;95602.88;5039400;23;20244;-67
2022/03/13 00:10:47;;;;;;;15.57;7.33;;;;;;;-2.24;66.19;95577.75;5033465;28;20276;-62
2022/03/13 00:13:18;;;;;;;10.00;6.00;;;;;;;-2.32;66.58;95585.38;5034627;28;20279;-63
2022/03/13 00:15:45;;;;;;;10.17;5.97;;;;;;;-2.40;66.13;95591.38;5034545;28;20733;-67
2022/03/13 00:18:11;;;;;;;11.97;6.57;;;;;;;-2.35;65.58;95599.56;5034633;28;20184;-62
2022/03/13 00:20:38;;;;;;;9.57;5.60;;;;;;;-2.47;65.26;95612.25;5034524;28;20209;-63
2022/03/13 00:23:12;;;;;;;8.87;5.37;;;;;;;-2.44;64.73;95617.16;5034845;28;20192;-64
2022/03/13 00:25:38;;;;;;;7.70;4.30;;;;;;;-2.44;64.21;95622.94;5017949;28;20214;-63
2022/03/13 00:28:04;;;;;;;9.33;4.70;;;;;;;-2.54;63.48;95643.06;5016331;28;20662;-64
2022/03/13 00:30:29;;;;;;;9.80;4.70;;;;;;;-2.51;62.89;95652.97;5016507;28;20230;-64
2022/03/13 00:32:55;;;;;;;11.87;5.33;;;;;;;-2.59;62.39;95665.56;5016557;28;20221;-65
2022/03/13 00:35:21;;;;;;;8.97;4.77;;;;;;;-2.56;62.37;95667.97;5034175;28;20211;-63
2022/03/13 00:37:46;;;;;;;7.40;4.60;;;;;;;-2.63;63.26;95644.06;5034738;28;20265;-62
2022/03/13 00:40:12;;;;;;;7.90;4.23;;;;;;;-2.73;62.66;95660.78;5034021;28;20202;-63
2022/03/13 00:42:38;;;;;;;7.53;5.00;;;;;;;-2.99;62.82;95637.25;5034234;28;20213;-66
2022/03/13 00:45:04;;;;;;;8.80;4.33;;;;;;;-3.03;64.00;95615.75;5016842;28;20196;-64
2022/03/13 00:47:29;;;;;;;6.97;4.60;;;;;;;-2.95;64.18;95609.00;5036587;28;20184;-63
2022/03/13 00:49:55;;;;;;;7.83;4.37;;;;;;;-2.94;64.16;95598.19;5015971;28;20178;-63
2022/03/13 00:52:20;;;;;;;8.40;4.50;;;;;;;-2.72;63.08;95641.72;5000110;28;20188;-66
2022/03/13 00:54:46;;;;;;;9.37;4.80;;;;;;;-2.74;63.63;95618.53;5033512;28;20182;-63
2022/03/13 00:57:12;;;;;;;6.13;4.03;;;;;;;-2.76;62.98;95617.75;5033905;28;20189;-61
2022/03/13 00:59:37;;;;;;;7.37;4.33;;;;;;;-2.72;63.25;95625.13;5033580;28;20219;-65
2022/03/13 01:02:03;;;;;;;10.47;4.13;;;;;;;-2.61;63.00;95627.44;5016200;28;20214;-63
2022/03/13 01:04:28;;;;;;;9.17;4.43;;;;;;;-2.50;62.59;95633.00;5033661;28;20180;-61
2022/03/13 01:06:54;;;;;;;11.83;4.30;;;;;;;-2.71;62.93;95606.06;5033434;28;20223;-65
2022/03/13 01:09:19;;;;;;;6.97;4.40;;;;;;;-2.65;63.04;95609.22;5033250;28;20179;-63
2022/03/13 01:11:45;;;;;;;5.83;4.07;;;;;;;-2.60;63.46;95595.06;5015474;28;20259;-61
2022/03/13 01:14:12;;;;;;;9.93;4.47;;;;;;;-2.76;62.94;95603.66;5033202;28;20299;-66
2022/03/13 01:16:40;;;;;;;9.67;5.17;;;;;;;-2.54;63.29;95598.28;5015738;28;20207;-63
2022/03/13 01:19:07;;;;;;;8.63;4.00;;;;;;;-2.68;63.31;95581.94;5033395;28;20187;-64
2022/03/13 01:21:37;;;;;;;8.37;4.97;;;;;;;-2.65;64.02;95569.44;5033092;28;20653;-61
2022/03/13 01:24:18;;;;;;;11.17;4.13;;;;;;;-2.72;63.90;95582.84;5033511;28;20160;-61
2022/03/13 01:26:44;;;;;;;9.53;4.07;;;;;;;-2.87;63.89;95568.19;5015476;28;20652;-61
2022/03/13 01:29:14;;;;;;;10.73;4.77;;;;;;;-2.76;63.99;95572.97;5015008;28;20180;-63
2022/03/13 01:31:44;;;;;;;6.80;4.20;;;;;;;-2.87;62.60;95599.72;5033905;28;20241;-64
2022/03/13 01:34:25;;;;;;;6.67;4.50;;;;;;;-2.87;62.40;95594.75;5033216;28;20175;-62
2022/03/13 01:36:50;;;;;;;6.27;4.17;;;;;;;-3.04;62.26;95602.50;5032054;28;20208;-63
2022/03/13 01:39:16;;;;;;;6.17;3.90;;;;;;;-3.05;62.41;95590.09;5032690;28;20529;-64
2022/03/13 01:41:41;;;;;;;8.50;3.93;;;;;;;-3.05;61.83;95613.28;5032989;28;20654;-63
2022/03/13 01:44:06;;;;;;;6.50;3.60;;;;;;;-3.49;62.75;95570.94;5015037;28;20277;-64
2022/03/13 01:46:32;;;;;;;9.90;4.17;;;;;;;-3.46;63.10;95556.00;5014725;28;20202;-66
2022/03/13 01:49:01;;;;;;;7.97;3.77;;;;;;;-3.52;63.10;95559.41;5015442;28;20190;-65
2022/03/13 01:51:27;;;;;;;8.37;4.30;;;;;;;-3.64;63.43;95553.81;5014759;28;20215;-62
2022/03/13 01:53:55;;;;;;;5.10;3.03;;;;;;;-3.84;62.55;95574.00;5032223;28;20178;-63
2022/03/13 01:56:21;;;;;;;7.73;3.40;;;;;;;-3.98;64.10;95546.03;5032422;28;20735;-62
2022/03/13 01:58:54;;;;;;;5.27;3.00;;;;;;;-4.00;63.96;95560.13;5014443;28;20183;-64
2022/03/13 02:01:22;;;;;;;5.00;3.70;;;;;;;-3.97;63.98;95562.59;5032370;28;20230;-62
2022/03/13 02:03:48;;;;;;;6.87;3.37;;;;;;;-4.00;63.62;95567.59;5032626;28;20561;-63
2022/03/13 02:06:15;;;;;;;4.73;2.63;;;;;;;-3.91;64.28;95562.50;5014300;28;20519;-66
2022/03/13 02:08:41;;;;;;;6.07;2.93;;;;;;;-3.75;64.55;95553.16;5032458;28;20249;-60
2022/03/13 02:11:08;;;;;;;5.17;3.07;;;;;;;-3.78;63.64;95575.56;5032291;28;20194;-62
2022/03/13 02:13:34;;;;;;;6.57;3.20;;;;;;;-3.76;63.96;95557.31;4998224;28;20204;-62
2022/03/13 02:15:59;;;;;;;4.70;2.93;;;;;;;-3.80;63.66;95570.63;5032448;28;20648;-63
2022/03/13 02:18:25;;;;;;;5.50;3.13;;;;;;;-4.02;64.62;95544.44;5032386;28;20703;-63
2022/03/13 02:20:50;;;;;;;5.30;2.90;;;;;;;-4.09;64.20;95552.84;5014083;28;20198;-66
2022/03/13 02:23:20;;;;;;;4.10;3.03;;;;;;;-4.56;64.99;95530.31;5031828;28;20189;-61
2022/03/13 02:25:51;;;;;;;4.50;3.20;;;;;;;-4.86;65.92;95504.25;5031872;28;20194;-63
2022/03/13 02:28:21;;;;;;;4.20;2.80;;;;;;;-4.98;67.28;95482.09;5032580;28;20175;-63
2022/03/13 02:30:49;;;;;;;4.83;3.47;;;;;;;-5.24;68.37;95459.28;5032030;28;20686;-63
2022/03/13 02:33:19;;;;;;;4.10;2.67;;;;;;;-5.54;70.75;95434.84;5014198;28;20291;-63
2022/03/13 02:36:03;;;;;;;6.60;3.20;;;;;;;-5.52;71.47;95421.63;5013900;28;20198;-63
2022/03/13 02:38:29;;;;;;;6.77;3.63;;;;;;;-5.61;72.15;95421.72;5031890;28;20198;-62
2022/03/13 02:40:56;;;;;;;8.20;4.27;;;;;;;-5.54;73.07;95413.41;5031773;28;20726;-65
2022/03/13 02:43:23;;;;;;;6.03;3.20;;;;;;;-5.42;72.55;95423.16;5014284;28;20189;-63
2022/03/13 02:45:52;;;;;;;6.83;3.60;;;;;;;-5.34;72.60;95437.94;5031675;28;20209;-65
2022/03/13 02:48:18;;;;;;;3.53;2.50;;;;;;;-5.26;72.20;95438.66;5031585;28;20232;-62
2022/03/13 02:50:43;;;;;;;6.07;3.40;;;;;;;-5.51;71.81;95443.06;5032153;28;20197;-62
2022/03/13 02:53:10;;;;;;;5.93;2.80;;;;;;;-5.68;72.78;95441.59;5014058;28;20181;-63
2022/03/13 02:55:36;;;;;;;6.60;3.23;;;;;;;-5.77;72.83;95442.50;5031573;28;20287;-61
2022/03/13 02:58:03;;;;;;;4.27;2.90;;;;;;;-5.82;72.66;95441.75;5013615;28;20597;-63
2022/03/13 03:00:58;;;;;;;5.33;2.97;;;;;;;-5.87;72.76;95433.56;5031599;28;20211;-63
2022/03/13 03:03:24;;;;;;;4.17;2.97;;;;;;;-5.77;73.04;95454.88;5018738;28;20212;-63
2022/03/13 03:05:50;;;;;;;4.90;2.93;;;;;;;-5.72;72.08;95458.16;5013699;28;20195;-63
2022/03/13 03:08:16;;;;;;;7.13;2.80;;;;;;;-5.53;72.56;95462.06;5031604;28;20318;-61
2022/03/13 03:10:43;;;;;;;6.70;3.63;;;;;;;-5.37;71.56;95473.44;5031517;28;20631;-62
2022/03/13 03:13:10;;;;;;;4.67;3.03;;;;;;;-5.30;71.30;95462.66;5032061;28;20186;-63
2022/03/13 03:15:35;;;;;;;8.27;2.83;;;;;;;-5.28;71.05;95482.44;5014243;28;20593;-65
2022/03/13 03:18:04;;;;;;;6.70;3.60;;;;;;;-5.35;69.81;95486.63;5014405;28;20185;-63
2022/03/13 03:20:30;;;;;;;3.53;2.70;;;;;;;-5.22;70.33;95482.38;5014159;28;20721;-62
2022/03/13 03:22:56;;;;;;;4.23;2.87;;;;;;;-5.00;69.85;95495.34;5031657;28;20244;-63
2022/03/13 03:25:24;;;;;;;5.13;3.13;;;;;;;-4.94;68.62;95515.91;5031333;28;20236;-63
2022/03/13 03:27:51;;;;;;;6.13;2.53;;;;;;;-5.06;68.08;95530.94;5014183;28;20288;-62
2022/03/13 03:30:24;;;;;;;6.67;3.43;;;;;;;-5.06;67.15;95542.50;5031639;28;20612;-66
2022/03/13 03:32:51;;;;;;;4.40;2.63;;;;;;;-5.20;67.37;95530.25;5034690;28;20276;-62
2022/03/13 03:35:19;;;;;;;5.50;2.50;;;;;;;-5.07;67.13;95524.34;5031328;28;20288;-62
2022/03/13 03:37:45;;;;;;;5.10;2.97;;;;;;;-5.17;67.02;95530.22;5013594;28;20204;-63
2022/03/13 03:40:11;;;;;;;4.57;2.70;;;;;;;-4.98;67.16;95509.34;4997262;28;20281;-65
2022/03/13 03:42:37;;;;;;;5.43;3.20;;;;;;;-4.88;66.61;95525.75;5014106;28;20221;-63
2022/03/13 03:45:04;;;;;;;4.07;2.23;;;;;;;-4.74;66.64;95546.25;5031212;28;20179;-63
2022/03/13 03:47:30;;;;;;;5.37;3.20;;;;;;;-4.70;65.97;95551.97;5034059;28;20174;-62
2022/03/13 03:49:55;;;;;;;5.97;2.70;;;;;;;-4.64;65.79;95554.38;5033496;28;20192;-63
2022/03/13 03:52:20;;;;;;;5.53;2.97;;;;;;;-4.62;64.95;95562.63;5035268;28;20182;-63
2022/03/13 03:54:46;;;;;;;4.17;2.60;;;;;;;-4.54;65.92;95538.56;5017016;28;20183;-65
2022/03/13 03:57:12;;;;;;;6.40;2.80;;;;;;;-4.37;65.08;95566.47;5016757;28;20182;-61
2022/03/13 03:59:37;;;;;;;5.50;2.50;;;;;;;-4.27;64.94;95553.94;5034597;28;20177;-62
2022/03/13 04:02:03;;;;;;;7.70;2.90;;;;;;;-4.22;64.55;95560.50;5034596;28;20217;-62
2022/03/13 04:04:29;;;;;;;4.17;3.00;;;;;;;-4.04;64.69;95566.00;5016579;28;20232;-65
2022/03/13 04:06:54;;;;;;;6.47;3.63;;;;;;;-3.96;64.48;95569.19;5016381;28;20275;-61
2022/03/13 04:09:20;;;;;;;8.47;3.50;;;;;;;-3.91;63.67;95582.38;5034320;28;20260;-63
2022/03/13 04:11:47;;;;;;;6.00;3.20;;;;;;;-3.88;64.06;95561.66;5016401;28;20238;-66
2022/03/13 04:14:14;;;;;;;4.70;2.80;;;;;;;-4.04;63.76;95566.00;5034256;28;20171;-62
2022/03/13 04:16:41;;;;;;;4.67;3.03;;;;;;;-4.05;63.10;95593.31;5016187;28;20242;-63
2022/03/13 04:19:09;;;;;;;7.27;3.37;;;;;;;-4.20;63.95;95563.75;5034177;28;20174;-64
2022/03/13 04:21:39;;;;;;;5.97;3.33;;;;;;;-4.31;64.52;95552.31;5034086;28;20221;-61
2022/03/13 04:24:05;;;;;;;3.60;2.97;;;;;;;-4.34;65.01;95534.16;5035004;28;20260;-64
2022/03/13 04:26:30;;;;;;;5.07;3.30;;;;;;;-4.40;65.18;95531.75;5034226;28;20206;-66
2022/03/13 04:28:56;;;;;;;4.37;2.87;;;;;;;-4.51;65.29;95512.06;5033990;28;20189;-62
2022/03/13 04:31:21;;;;;;;5.20;3.57;;;;;;;-4.60;66.20;95503.91;5033991;28;20596;-65
2022/03/13 04:33:47;;;;;;;5.03;3.20;;;;;;;-4.60;66.44;95489.03;5034165;28;20664;-63
2022/03/13 04:36:13;;;;;;;5.27;2.87;;;;;;;-4.44;66.43;95505.34;5034163;28;20205;-63
2022/03/13 04:38:40;;;;;;;9.00;3.20;;;;;;;-4.39;66.37;95503.63;5033576;28;20195;-67
2022/03/13 04:41:06;;;;;;;6.67;3.40;;;;;;;-4.41;66.29;95497.88;4999697;28;20205;-63
2022/03/13 04:43:31;;;;;;;5.70;3.23;;;;;;;-4.20;66.60;95500.03;5016043;28;20240;-64
2022/03/13 04:45:57;;;;;;;6.60;2.90;;;;;;;-4.04;65.94;95521.31;4999417;28;20205;-64
2022/03/13 04:48:23;;;;;;;4.33;3.00;;;;;;;-3.99;65.97;95514.63;5015815;28;20648;-66
2022/03/13 04:50:48;;;;;;;5.13;3.30;;;;;;;-3.92;65.81;95516.16;5015968;28;20278;-65
2022/03/13 04:53:15;;;;;;;5.77;4.00;;;;;;;-3.86;66.17;95508.66;5033420;28;20258;-63
2022/03/13 04:55:40;;;;;;;7.87;3.70;;;;;;;-3.86;66.83;95493.75;5019083;23;20234;-62
2022/03/13 04:58:08;;;;;;;8.10;3.80;;;;;;;-4.06;68.05;95468.38;5013518;28;20201;-62
2022/03/13 05:00:38;;;;;;;5.10;3.50;;;;;;;-4.09;69.25;95450.25;5013732;28;20212;-67
2022/03/13 05:03:07;;;;;;;5.83;4.00;;;;;;;-3.90;69.31;95449.13;5013402;28;20214;-64
2022/03/13 05:05:36;;;;;;;6.70;3.50;;;;;;;-3.99;69.76;95445.13;5013854;28;20217;-62
2022/03/13 05:08:04;;;;;;;7.03;3.50;;;;;;;-3.73;68.66;95467.84;4996140;28;20196;-65
2022/03/13 05:10:36;;;;;;;5.83;3.47;;;;;;;-4.05;69.51;95455.16;5014231;28;20195;-63
2022/03/13 05:13:04;;;;;;;3.90;3.43;;;;;;;-3.94;69.59;95455.78;4995718;28;20673;-64
2022/03/13 05:15:30;;;;;;;5.93;2.97;;;;;;;-3.78;68.19;95494.44;5013120;28;20286;-63
2022/03/13 05:17:55;;;;;;;5.80;3.37;;;;;;;-3.72;68.39;95489.38;5013401;28;20293;-61
2022/03/13 05:20:31;;;;;;;8.30;4.47;;;;;;;-3.98;67.21;95516.25;4995547;28;20210;-63
2022/03/13 05:22:57;;;;;;;10.37;4.60;;;;;;;-3.95;67.77;95500.50;4995907;28;20230;-66
2022/03/13 05:25:24;;;;;;;8.50;4.00;;;;;;;-3.97;69.48;95462.47;5013224;28;20227;-62
2022/03/13 05:27:50;;;;;;;8.50;4.10;;;;;;;-4.01;69.20;95465.84;5013409;28;20569;-66
2022/03/13 05:30:16;;;;;;;8.87;4.90;;;;;;;-3.76;68.62;95492.75;5005884;28;20214;-63
2022/03/13 05:32:42;;;;;;;13.77;4.53;;;;;;;-3.69;68.25;95493.44;5008217;28;20182;-66
2022/03/13 05:35:08;;;;;;;9.67;5.37;;;;;;;-3.85;67.71;95510.28;4992463;28;20218;-63
2022/03/13 05:37:33;;;;;;;5.80;3.97;;;;;;;-3.92;68.31;95498.78;5010956;28;20182;-63
2022/03/13 05:39:59;;;;;;;7.87;4.27;;;;;;;-3.83;68.04;95506.09;4994661;28;20186;-62
2022/03/13 05:42:25;;;;;;;8.90;4.33;;;;;;;-3.66;67.40;95523.22;4994319;28;20206;-64
2022/03/13 05:44:54;;;;;;;6.83;4.13;;;;;;;-3.57;67.86;95513.13;4995418;28;20183;-65
2022/03/13 05:47:21;;;;;;;8.23;4.20;;;;;;;-3.29;68.05;95511.00;5012673;28;20181;-68
2022/03/13 05:49:47;;;;;;;8.60;4.20;;;;;;;-3.28;67.89;95515.09;4995009;28;20187;-61
2022/03/13 05:52:15;;;;;;;4.97;3.03;;;;;;;-3.30;65.79;95564.84;5012696;28;20257;-63
2022/03/13 05:54:44;;;;;;;5.07;3.23;;;;;;;-3.26;66.27;95553.19;5012505;28;20637;-62
2022/03/13 05:57:11;;;;;;;5.90;2.93;;;;;;;-3.39;67.01;95531.88;5012387;28;20238;-61
2022/03/13 05:59:37;;;;;;;5.87;3.63;;;;;;;-3.39;68.28;95507.84;5012515;28;20232;-60
2022/03/13 06:02:07;;;;;;;5.43;3.60;;;;;;;-3.30;67.55;95531.72;5013189;28;20676;-61
2022/03/13 06:04:37;;;;;;;7.77;3.80;;;;;;;-3.17;67.36;95531.47;5012955;28;20266;-66
2022/03/13 06:07:04;;;;;;;7.20;4.10;;;;;;;-3.08;66.81;95542.91;5013059;28;20210;-63
2022/03/13 06:09:30;;;;;;;6.87;4.03;;;;;;;-2.98;66.49;95561.78;5011595;28;20628;-60
2022/03/13 06:11:56;;;;;;;7.27;4.10;;;;;;;-3.00;68.04;95517.06;5012710;28;20281;-62
2022/03/13 06:14:22;;;;;;;8.40;4.17;;;;;;;-2.92;67.62;95525.19;4996451;28;20215;-66
2022/03/13 06:16:48;;;;;;;8.07;4.27;;;;;;;-2.90;67.58;95537.59;4996984;28;20215;-63
2022/03/13 06:19:13;;;;;;;10.23;5.70;;;;;;;-2.93;67.21;95535.19;5012908;28;20228;-62
2022/03/13 06:21:42;;;;;;;10.00;5.70;;;;;;;-3.11;68.74;95510.66;5014900;23;20269;-61
2022/03/13 06:24:08;;;;;;;13.57;6.83;;;;;;;-3.22;70.24;95470.25;5031933;28;20188;-63
2022/03/13 06:26:34;;;;;;;13.53;6.37;;;;;;;-2.94;68.92;95511.97;5032364;28;20247;-63
2022/03/13 06:29:00;;;;;;;13.53;8.50;;;;;;;-2.80;69.11;95504.22;5031733;28;20240;-61
2022/03/13 06:31:26;;;;;;;15.97;7.30;;;;;;;-2.57;68.17;95527.00;5032095;28;20214;-66
2022/03/13 06:33:51;;;;;;;12.77;7.47;;;;;;;-2.66;68.12;95522.19;5032176;28;20268;-63
2022/03/13 06:36:16;;;;;;;13.17;7.30;;;;;;;-2.34;67.19;95554.72;5032354;28;20288;-61
2022/03/13 06:38:42;;;;;;;12.30;6.50;;;;;;;-2.38;68.38;95528.25;5014617;28;20186;-63
2022/03/13 06:41:08;;;;;;;9.10;6.23;;;;;;;-2.12;67.91;95537.66;5032053;28;20233;-62
2022/03/13 06:43:34;;;;;;;14.43;6.43;;;;;;;-2.01;66.87;95558.97;5031774;28;20187;-64
2022/03/13 06:46:03;;;;;;;12.13;6.80;;;;;;;-1.80;65.82;95583.41;5014221;28;20210;-62
2022/03/13 06:48:31;;;;;;;9.83;6.00;;;;;;;-1.81;64.67;95601.72;5031836;28;20239;-66
2022/03/13 06:50:59;;;;;;;12.80;6.20;;;;;;;-1.78;64.71;95601.63;5031632;28;20691;-61
2022/03/13 06:53:25;;;;;;;13.70;7.13;;;;;;;-1.61;64.08;95612.91;5031601;28;20266;-64
2022/03/13 06:55:54;;;;;;;15.50;7.53;;;;;;;-1.74;64.30;95615.66;5032178;28;20218;-62
2022/03/13 06:58:20;;;;;;;15.77;7.03;;;;;;;-1.74;65.23;95579.97;5031664;28;20614;-62
2022/03/13 07:00:45;;;;;;;13.97;7.93;;;;;;;-1.73;67.02;95544.22;5031992;28;20213;-61
2022/03/13 07:03:13;;;;;;;12.23;7.17;;;;;;;-1.49;63.74;95618.44;5032293;28;20213;-64
2022/03/13 07:05:40;;;;;;;13.10;7.67;;;;;;;-1.65;65.00;95569.78;5031818;28;20237;-65
2022/03/13 07:08:06;;;;;;;12.67;7.13;;;;;;;-1.31;65.05;95585.59;4997786;28;20577;-63
2022/03/13 07:10:31;;;;;;;14.07;7.73;;;;;;;-1.18;64.17;95588.59;5031832;28;20287;-66
2022/03/13 07:12:57;;;;;;;14.40;8.47;;;;;;;-0.86;62.05;95644.34;5032051;28;20179;-66
2022/03/13 07:15:24;;;;;;;14.07;6.97;;;;;;;-0.95;62.91;95616.31;5013610;28;20216;-66
2022/03/13 07:17:49;;;;;;;13.00;7.83;;;;;;;-0.73;61.72;95639.88;5032041;28;20187;-64
2022/03/13 07:20:15;;;;;;;16.03;7.43;;;;;;;-0.61;62.56;95609.59;5032381;28;20208;-65
2022/03/13 07:22:42;;;;;;;13.60;8.20;;;;;;;-0.50;61.77;95640.06;5035702;28;20292;-63
2022/03/13 07:25:09;;;;;;;11.90;7.13;;;;;;;-0.35;61.07;95662.16;5035296;28;20693;-65
2022/03/13 07:27:36;;;;;;;13.60;8.07;;;;;;;-0.28;60.63;95656.13;5035738;28;20651;-64
2022/03/13 07:30:04;;;;;;;10.30;6.83;;;;;;;-0.34;61.56;95638.81;5017818;28;20177;-64
2022/03/13 07:32:29;;;;;;;13.87;7.40;;;;;;;-0.21;60.89;95652.63;5041786;23;20234;-63
2022/03/13 07:34:55;;;;;;;13.87;7.77;;;;;;;-0.27;60.51;95665.28;5035074;28;20173;-66
2022/03/13 07:37:20;;;;;;;12.53;7.50;;;;;;;-0.34;60.75;95647.97;5035510;28;20204;-66
2022/03/13 07:39:47;;;;;;;14.63;7.47;;;;;;;-0.47;59.10;95694.94;5035084;28;20239;-63
2022/03/13 07:42:14;;;;;;;13.57;7.67;;;;;;;-0.75;60.20;95671.53;5017422;28;20235;-61
2022/03/13 07:44:40;;;;;;;15.17;7.77;;;;;;;-0.62;61.15;95639.56;5017510;28;20177;-63
2022/03/13 07:47:05;;;;;;;13.77;8.47;;;;;;;-0.45;61.73;95625.81;5035731;28;20248;-61
2022/03/13 07:49:31;;;;;;;15.80;8.23;;;;;;;-0.22;61.85;95616.00;5035291;28;20181;-63
2022/03/13 07:51:56;;;;;;;14.40;8.80;;;;;;;0.05;61.99;95619.41;5035086;28;20583;-65
2022/03/13 07:54:22;;;;;;;16.13;8.33;;;;;;;-0.23;60.17;95664.34;5000920;28;20601;-63
2022/03/13 07:56:47;;;;;;;18.47;9.67;;;;;;;-0.45;59.19;95678.25;5036158;28;20219;-61
2022/03/13 07:59:20;;;;;;;16.87;9.83;;;;;;;-0.44;60.29;95649.91;5018651;28;20190;-62
2022/03/13 08:01:48;;;;;;;21.27;9.00;;;;;;;-0.23;60.90;95644.34;5017019;28;20221;-62
2022/03/13 08:04:14;;;;;;;16.93;8.83;;;;;;;-0.22;59.68;95643.47;5016955;28;20221;-66
2022/03/13 08:06:40;;;;;;;14.37;9.30;;;;;;;-0.15;60.95;95622.47;5016528;28;20215;-64
2022/03/13 08:09:06;;;;;;;20.53;9.03;;;;;;;-0.21;61.19;95612.66;5034499;28;20190;-65
2022/03/13 08:11:34;;;;;;;17.00;9.00;;;;;;;0.17;61.11;95614.06;5034593;28;20205;-64
2022/03/13 08:14:00;;;;;;;15.97;8.70;;;;;;;0.29;59.91;95632.88;5034481;28;20186;-61
2022/03/13 08:16:27;;;;;;;17.73;10.50;;;;;;;0.61;60.59;95610.22;5032979;28;20382;-61
2022/03/13 08:18:53;;;;;;;16.37;9.47;;;;;;;0.84;58.73;95657.88;5016440;28;20189;-65
2022/03/13 08:21:19;;;;;;;14.90;8.87;;;;;;;1.25;58.44;95664.06;5034654;28;20577;-62
2022/03/13 08:23:44;;;;;;;17.73;9.90;;;;;;;1.63;58.48;95656.91;5016705;28;20189;-64
2022/03/13 08:26:11;;;;;;;19.00;10.23;;;;;;;1.83;57.31;95671.25;5034474;28;20288;-65
2022/03/13 08:28:44;;;;;;;17.90;10.13;;;;;;;1.85;55.18;95726.34;5016417;28;20189;-63
2022/03/13 08:31:09;;;;;;;15.53;10.27;;;;;;;2.11;57.87;95646.84;5034153;28;20304;-62
2022/03/13 08:33:35;;;;;;;17.93;10.40;;;;;;;2.29;56.74;95671.25;5033261;28;20274;-66
2022/03/13 08:36:01;;;;;;;18.63;8.80;;;;;;;2.40;55.53;95714.31;5034304;28;20580;-63
2022/03/13 08:38:28;;;;;;;15.47;9.53;;;;;;;2.28;54.63;95722.28;5034318;28;20564;-65
2022/03/13 08:40:55;;;;;;;16.13;10.07;;;;;;;2.07;54.57;95722.22;5016203;28;20202;-61
2022/03/13 08:43:21;;;;;;;17.87;11.03;;;;;;;1.81;53.85;95737.34;5033844;28;20622;-64
2022/03/13 08:45:47;;;;;;;19.27;9.77;;;;;;;1.76;55.96;95679.06;5016091;28;20356;-62
2022/03/13 08:48:13;;;;;;;20.07;10.70;;;;;;;1.94;55.86;95683.44;5016005;28;20271;-62
2022/03/13 08:50:39;;;;;;;18.70;9.73;;;;;;;2.11;55.94;95674.44;5033542;28;20202;-61
2022/03/13 08:53:05;;;;;;;15.73;10.37;;;;;;;2.28;53.02;95732.31;5032258;28;20189;-66
2022/03/13 08:55:30;;;;;;;17.77;10.77;;;;;;;2.54;53.88;95703.81;5016133;28;20264;-64
2022/03/13 08:57:56;;;;;;;19.53;9.40;;;;;;;3.20;53.33;95733.06;5015876;28;20262;-62
2022/03/13 09:00:24;;;;;;;18.20;9.90;;;;;;;3.47;49.90;95796.53;5033570;28;20409;-61
2022/03/13 09:02:50;;;;;;;22.67;10.60;;;;;;;3.69;49.40;95794.81;5033552;28;20594;-65
2022/03/13 09:05:16;;;;;;;15.87;9.50;;;;;;;3.45;49.62;95751.34;5033675;28;20579;-61
2022/03/13 09:07:42;;;;;;;16.67;9.53;;;;;;;3.40;47.37;95758.25;5015607;28;20692;-61
2022/03/13 09:10:09;;;;;;;16.50;9.07;;;;;;;3.78;45.34;95765.06;5031894;28;20225;-62
2022/03/13 09:12:35;;;;;;;13.20;8.67;;;;;;;4.28;45.09;95751.19;5033696;28;20224;-61
2022/03/13 09:15:03;;;;;;;17.47;10.70;;;;;;;4.75;44.33;95746.63;5033198;28;20185;-63
2022/03/13 09:17:28;;;;;;;16.70;9.87;;;;;;;5.40;44.49;95720.09;5015522;28;20727;-61
2022/03/13 09:19:55;;;;;;;16.43;9.50;;;;;;;5.51;44.47;95715.38;5032953;28;20269;-65
2022/03/13 09:22:22;;;;;;;19.27;10.40;;;;;;;5.02;45.35;95684.09;5015349;28;20279;-63
2022/03/13 09:24:49;;;;;;;20.57;10.67;;;;;;;4.93;44.92;95692.88;5032753;28;20176;-61
2022/03/13 09:27:14;;;;;;;17.87;10.33;;;;;;;5.23;44.84;95674.72;5015193;28;20194;-65
2022/03/13 09:29:40;;;;;;;17.60;10.73;;;;;;;4.67;43.95;95678.16;5032824;28;20174;-64
2022/03/13 09:32:06;;;;;;;16.80;10.50;;;;;;;3.96;45.60;95627.69;5032785;28;20202;-64
2022/03/13 09:34:32;;;;;;;17.20;10.43;;;;;;;3.70;47.70;95583.53;5032976;28;20629;-65
2022/03/13 09:36:59;;;;;;;17.90;11.03;;;;;;;3.79;47.96;95585.66;5033368;28;20211;-62
2022/03/13 09:39:29;;;;;;;18.07;11.10;;;;;;;4.70;46.03;95631.88;5032858;28;20208;-62
2022/03/13 09:41:56;;;;;;;16.00;10.33;;;;;;;5.58;44.77;95669.59;5033345;28;20214;-63
2022/03/13 09:44:21;;;;;;;17.60;10.93;;;;;;;6.03;44.21;95655.59;5015222;28;20186;-62
2022/03/13 09:46:47;;;;;;;20.13;10.93;;;;;;;6.04;43.09;95673.19;5033264;28;20214;-65
2022/03/13 09:49:16;;;;;;;21.30;10.67;;;;;;;6.14;44.04;95643.28;5014792;28;20197;-67
2022/03/13 09:51:42;;;;;;;19.20;12.00;;;;;;;6.66;42.90;95667.41;5033112;28;20283;-64
2022/03/13 09:54:08;;;;;;;21.37;12.53;;;;;;;7.23;40.90;95696.31;5032613;28;20654;-65
2022/03/13 09:56:35;;;;;;;20.63;12.50;;;;;;;6.06;39.91;95693.31;5032430;28;20629;-66
2022/03/13 09:59:01;;;;;;;21.43;12.50;;;;;;;6.65;39.98;95684.28;5032500;28;20178;-61
2022/03/13 10:01:27;;;;;;;23.10;12.40;;;;;;;6.98;37.74;95717.06;5015015;28;20706;-64
2022/03/13 10:03:54;;;;;;;23.40;11.53;;;;;;;6.49;38.90;95675.06;5032324;28;20181;-65
2022/03/13 10:06:19;;;;;;;16.80;11.13;;;;;;;6.65;38.52;95683.47;5014690;28;20200;-66
2022/03/13 10:08:45;;;;;;;22.20;11.20;;;;;;;7.16;38.85;95664.69;5032126;28;20193;-62
2022/03/13 10:11:10;;;;;;;22.27;12.10;;;;;;;7.50;37.92;95679.59;5032308;28;20620;-62
2022/03/13 10:13:43;;;;;;;24.77;12.57;;;;;;;7.28;37.87;95664.81;5032168;28;20203;-65
2022/03/13 10:16:15;;;;;;;23.10;13.63;;;;;;;6.65;38.41;95648.09;5014380;28;20209;-63
2022/03/13 10:18:40;;;;;;;19.37;12.50;;;;;;;6.29;38.40;95643.28;5032131;28;20177;-63
2022/03/13 10:21:09;;;;;;;25.07;13.13;;;;;;;6.12;39.83;95599.63;5032233;28;20267;-64
2022/03/13 10:23:36;;;;;;;23.20;12.97;;;;;;;6.25;41.60;95561.03;5031964;28;20267;-66
2022/03/13 10:26:04;;;;;;;22.10;13.30;;;;;;;6.55;43.38;95539.16;5032156;28;20577;-61
2022/03/13 10:28:39;;;;;;;19.80;12.97;;;;;;;6.31;41.80;95559.88;5014415;28;20185;-65
2022/03/13 10:31:07;;;;;;;22.67;13.37;;;;;;;6.02;41.31;95566.47;5030921;28;20216;-64
2022/03/13 10:33:42;;;;;;;22.00;14.07;;;;;;;6.27;39.68;95598.81;5038528;23;20249;-63
2022/03/13 10:36:09;;;;;;;21.33;13.17;;;;;;;6.81;40.23;95592.50;5031973;28;20596;-60
2022/03/13 10:38:35;;;;;;;19.87;13.63;;;;;;;7.38;40.29;95591.75;5031876;28;20173;-66
2022/03/13 10:41:08;;;;;;;23.63;13.67;;;;;;;7.92;40.04;95597.88;5031622;28;20211;-66
2022/03/13 10:43:36;;;;;;;19.77;12.87;;;;;;;8.08;39.59;95593.53;5038309;23;20318;-63
2022/03/13 10:46:04;;;;;;;25.37;13.67;;;;;;;7.87;38.42;95602.38;5031713;28;20648;-64
2022/03/13 10:48:33;;;;;;;25.67;14.23;;;;;;;7.57;39.28;95598.19;5031914;28;20651;-60
2022/03/13 10:51:03;;;;;;;24.43;14.43;;;;;;;7.50;36.36;95651.78;5014231;28;20281;-62
2022/03/13 10:53:30;;;;;;;23.37;15.27;;;;;;;7.12;37.69;95616.00;5045615;23;20283;-63
2022/03/13 10:56:13;;;;;;;23.37;14.73;;;;;;;7.13;36.81;95632.00;5030545;28;20214;-63
2022/03/13 10:58:40;;;;;;;25.97;13.63;;;;;;;6.81;37.89;95611.00;5031868;28;20814;-66
2022/03/13 11:01:10;;;;;;;25.87;13.80;;;;;;;6.70;37.93;95604.03;5031391;28;20205;-65
2022/03/13 11:04:05;;;;;;;22.77;12.43;;;;;;;6.60;36.95;95618.06;5031555;28;20208;-64
2022/03/13 11:06:30;;;;;;;23.37;14.87;;;;;;;6.36;36.81;95603.38;5013911;28;20266;-65
2022/03/13 11:08:56;;;;;;;19.37;12.83;;;;;;;6.30;39.40;95543.91;5032101;28;20268;-63
2022/03/13 11:11:27;;;;;;;20.73;12.43;;;;;;;6.15;39.65;95527.06;5031393;28;20209;-66
2022/03/13 11:13:59;;;;;;;20.33;13.53;;;;;;;6.34;40.42;95525.16;5031877;28;20196;-63
2022/03/13 11:16:29;;;;;;;24.40;14.57;;;;;;;6.27;43.10;95457.41;5031597;28;20259;-64
2022/03/13 11:18:57;;;;;;;23.83;15.03;;;;;;;6.23;42.19;95476.97;5061350;23;20672;-65
2022/03/13 11:21:24;;;;;;;27.90;15.20;;;;;;;6.28;40.39;95515.41;5051313;28;20204;-63
2022/03/13 11:23:50;;;;;;;22.67;12.83;;;;;;;6.22;41.08;95502.31;5051505;28;20643;-64
2022/03/13 11:26:22;;;;;;;21.37;12.83;;;;;;;6.16;40.11;95515.28;5051390;28;20634;-64
2022/03/13 11:28:49;;;;;;;21.07;12.57;;;;;;;5.77;40.25;95503.84;5051743;28;20185;-62